sensor_id;sensor_type;location;lat;lon;timestamp;temperature;humidity
13817;DHT22;6979;52.116;5.286;2023-06-01T00:00:56;16.70;97.70
13817;DHT22;6979;52.116;5.286;2023-06-01T00:03:24;16.70;97.70
13817;DHT22;6979;52.116;5.286;2023-06-01T00:05:52;16.70;97.80
13817;DHT22;6979;52.116;5.286;2023-06-01T00:08:18;16.70;97.80
13817;DHT22;6979;52.116;5.286;2023-06-01T00:10:45;16.80;97.90
13817;DHT22;6979;52.116;5.286;2023-06-01T00:13:12;16.70;97.90
13817;DHT22;6979;52.116;5.286;2023-06-01T00:15:39;16.70;98.00
13817;DHT22;6979;52.116;5.286;2023-06-01T00:18:07;16.70;98.00
13817;DHT22;6979;52.116;5.286;2023-06-01T00:20:38;16.80;98.00
13817;DHT22;6979;52.116;5.286;2023-06-01T00:23:05;16.80;98.00
13817;DHT22;6979;52.116;5.286;2023-06-01T00:25:32;16.70;98.00
13817;DHT22;6979;52.116;5.286;2023-06-01T00:27:59;16.70;98.00
13817;DHT22;6979;52.116;5.286;2023-06-01T00:30:27;16.70;98.00
13817;DHT22;6979;52.116;5.286;2023-06-01T00:32:54;16.70;98.00
13817;DHT22;6979;52.116;5.286;2023-06-01T00:35:23;16.70;98.10
13817;DHT22;6979;52.116;5.286;2023-06-01T00:37:49;16.70;98.20
13817;DHT22;6979;52.116;5.286;2023-06-01T00:40:16;16.70;98.20
13817;DHT22;6979;52.116;5.286;2023-06-01T00:42:43;16.70;98.20
13817;DHT22;6979;52.116;5.286;2023-06-01T00:45:10;16.70;98.20
13817;DHT22;6979;52.116;5.286;2023-06-01T00:47:40;16.70;98.30
13817;DHT22;6979;52.116;5.286;2023-06-01T00:50:09;16.60;98.40
13817;DHT22;6979;52.116;5.286;2023-06-01T00:52:38;16.60;98.40
13817;DHT22;6979;52.116;5.286;2023-06-01T00:55:06;16.60;98.50
13817;DHT22;6979;52.116;5.286;2023-06-01T00:57:33;16.60;98.50
13817;DHT22;6979;52.116;5.286;2023-06-01T01:00:01;16.60;98.50
13817;DHT22;6979;52.116;5.286;2023-06-01T01:02:35;16.60;98.60
13817;DHT22;6979;52.116;5.286;2023-06-01T01:05:03;16.60;98.60
13817;DHT22;6979;52.116;5.286;2023-06-01T01:07:42;16.60;98.70
13817;DHT22;6979;52.116;5.286;2023-06-01T01:10:19;16.70;98.80
13817;DHT22;6979;52.116;5.286;2023-06-01T01:12:53;16.70;98.80
13817;DHT22;6979;52.116;5.286;2023-06-01T01:15:28;16.70;98.80
13817;DHT22;6979;52.116;5.286;2023-06-01T01:18:00;16.70;98.80
13817;DHT22;6979;52.116;5.286;2023-06-01T01:20:32;16.70;98.90
13817;DHT22;6979;52.116;5.286;2023-06-01T01:23:14;16.70;98.90
13817;DHT22;6979;52.116;5.286;2023-06-01T01:26:08;16.70;99.10
13817;DHT22;6979;52.116;5.286;2023-06-01T01:28:42;16.70;99.20
13817;DHT22;6979;52.116;5.286;2023-06-01T01:31:11;16.80;99.10
13817;DHT22;6979;52.116;5.286;2023-06-01T01:33:40;16.80;99.10
13817;DHT22;6979;52.116;5.286;2023-06-01T01:36:09;16.80;99.00
13817;DHT22;6979;52.116;5.286;2023-06-01T01:38:36;16.70;99.00
13817;DHT22;6979;52.116;5.286;2023-06-01T01:41:04;16.80;99.00
13817;DHT22;6979;52.116;5.286;2023-06-01T01:43:31;16.80;99.00
13817;DHT22;6979;52.116;5.286;2023-06-01T01:46:10;16.80;98.90
13817;DHT22;6979;52.116;5.286;2023-06-01T01:48:39;16.80;99.10
13817;DHT22;6979;52.116;5.286;2023-06-01T01:51:19;16.80;99.00
13817;DHT22;6979;52.116;5.286;2023-06-01T01:53:49;16.80;99.00
13817;DHT22;6979;52.116;5.286;2023-06-01T01:56:18;16.80;99.00
13817;DHT22;6979;52.116;5.286;2023-06-01T01:58:47;16.70;99.00
13817;DHT22;6979;52.116;5.286;2023-06-01T02:01:18;16.70;99.20
13817;DHT22;6979;52.116;5.286;2023-06-01T02:03:45;16.70;99.20
13817;DHT22;6979;52.116;5.286;2023-06-01T02:06:12;16.70;99.10
13817;DHT22;6979;52.116;5.286;2023-06-01T02:08:39;16.70;99.20
13817;DHT22;6979;52.116;5.286;2023-06-01T02:11:06;16.70;99.20
13817;DHT22;6979;52.116;5.286;2023-06-01T02:13:33;16.70;99.30
13817;DHT22;6979;52.116;5.286;2023-06-01T02:16:02;16.70;99.40
13817;DHT22;6979;52.116;5.286;2023-06-01T02:18:30;16.70;99.40
13817;DHT22;6979;52.116;5.286;2023-06-01T02:20:57;16.70;99.50
13817;DHT22;6979;52.116;5.286;2023-06-01T02:23:24;16.70;99.50
13817;DHT22;6979;52.116;5.286;2023-06-01T02:25:51;16.70;99.50
13817;DHT22;6979;52.116;5.286;2023-06-01T02:28:18;16.70;99.50
13817;DHT22;6979;52.116;5.286;2023-06-01T02:30:45;16.70;99.50
13817;DHT22;6979;52.116;5.286;2023-06-01T02:33:12;16.70;99.60
13817;DHT22;6979;52.116;5.286;2023-06-01T02:35:40;16.70;99.70
13817;DHT22;6979;52.116;5.286;2023-06-01T02:38:07;16.70;99.80
13817;DHT22;6979;52.116;5.286;2023-06-01T02:40:34;16.70;99.80
13817;DHT22;6979;52.116;5.286;2023-06-01T02:43:01;16.70;99.80
13817;DHT22;6979;52.116;5.286;2023-06-01T02:45:28;16.70;99.90
13817;DHT22;6979;52.116;5.286;2023-06-01T02:47:55;16.70;99.90
13817;DHT22;6979;52.116;5.286;2023-06-01T02:50:22;16.60;99.90
13817;DHT22;6979;52.116;5.286;2023-06-01T02:52:52;16.70;99.80
13817;DHT22;6979;52.116;5.286;2023-06-01T02:55:19;16.60;99.90
13817;DHT22;6979;52.116;5.286;2023-06-01T02:58:02;16.60;99.90
13817;DHT22;6979;52.116;5.286;2023-06-01T03:00:38;16.50;99.90
13817;DHT22;6979;52.116;5.286;2023-06-01T03:03:05;16.50;99.90
13817;DHT22;6979;52.116;5.286;2023-06-01T03:05:32;16.50;99.90
13817;DHT22;6979;52.116;5.286;2023-06-01T03:08:37;16.50;99.90
13817;DHT22;6979;52.116;5.286;2023-06-01T03:11:07;16.50;99.90
13817;DHT22;6979;52.116;5.286;2023-06-01T03:13:36;16.50;99.90
13817;DHT22;6979;52.116;5.286;2023-06-01T03:16:04;16.40;99.90
13817;DHT22;6979;52.116;5.286;2023-06-01T03:18:31;16.40;99.90
13817;DHT22;6979;52.116;5.286;2023-06-01T03:20:58;16.40;99.90
13817;DHT22;6979;52.116;5.286;2023-06-01T03:23:25;16.40;99.90
13817;DHT22;6979;52.116;5.286;2023-06-01T03:25:55;16.30;99.90
13817;DHT22;6979;52.116;5.286;2023-06-01T03:28:22;16.30;99.90
13817;DHT22;6979;52.116;5.286;2023-06-01T03:30:49;16.30;99.90
13817;DHT22;6979;52.116;5.286;2023-06-01T03:33:16;16.40;99.90
13817;DHT22;6979;52.116;5.286;2023-06-01T03:35:43;16.30;99.90
13817;DHT22;6979;52.116;5.286;2023-06-01T03:38:10;16.40;99.90
13817;DHT22;6979;52.116;5.286;2023-06-01T03:40:37;16.30;99.90
13817;DHT22;6979;52.116;5.286;2023-06-01T03:43:05;16.30;99.90
13817;DHT22;6979;52.116;5.286;2023-06-01T03:45:33;16.30;99.90
13817;DHT22;6979;52.116;5.286;2023-06-01T03:48:00;16.30;99.90
13817;DHT22;6979;52.116;5.286;2023-06-01T03:50:27;16.20;99.90
13817;DHT22;6979;52.116;5.286;2023-06-01T03:53:00;16.20;99.90
13817;DHT22;6979;52.116;5.286;2023-06-01T03:55:28;16.20;99.90
13817;DHT22;6979;52.116;5.286;2023-06-01T03:58:06;16.20;99.90
13817;DHT22;6979;52.116;5.286;2023-06-01T04:00:33;16.20;99.90
13817;DHT22;6979;52.116;5.286;2023-06-01T04:03:03;16.20;99.90
13817;DHT22;6979;52.116;5.286;2023-06-01T04:05:33;16.20;99.90
13817;DHT22;6979;52.116;5.286;2023-06-01T04:08:01;16.10;99.90
13817;DHT22;6979;52.116;5.286;2023-06-01T04:10:29;16.10;99.90
13817;DHT22;6979;52.116;5.286;2023-06-01T04:12:56;16.10;99.90
13817;DHT22;6979;52.116;5.286;2023-06-01T04:15:27;16.10;99.90
13817;DHT22;6979;52.116;5.286;2023-06-01T04:17:54;16.10;99.90
13817;DHT22;6979;52.116;5.286;2023-06-01T04:20:22;16.10;99.90
13817;DHT22;6979;52.116;5.286;2023-06-01T04:22:50;16.10;99.90
13817;DHT22;6979;52.116;5.286;2023-06-01T04:25:17;16.10;99.90
13817;DHT22;6979;52.116;5.286;2023-06-01T04:27:46;16.10;99.90
13817;DHT22;6979;52.116;5.286;2023-06-01T04:30:13;16.10;99.90
13817;DHT22;6979;52.116;5.286;2023-06-01T04:32:43;16.10;99.90
13817;DHT22;6979;52.116;5.286;2023-06-01T04:35:11;16.20;99.90
13817;DHT22;6979;52.116;5.286;2023-06-01T04:37:40;16.20;99.90
13817;DHT22;6979;52.116;5.286;2023-06-01T04:40:08;16.20;99.90
13817;DHT22;6979;52.116;5.286;2023-06-01T04:42:38;16.20;99.90
13817;DHT22;6979;52.116;5.286;2023-06-01T04:45:07;16.20;99.90
13817;DHT22;6979;52.116;5.286;2023-06-01T04:47:36;16.20;99.90
13817;DHT22;6979;52.116;5.286;2023-06-01T04:50:10;16.30;99.90
13817;DHT22;6979;52.116;5.286;2023-06-01T04:52:38;16.30;99.90
13817;DHT22;6979;52.116;5.286;2023-06-01T04:55:06;16.30;99.90
13817;DHT22;6979;52.116;5.286;2023-06-01T04:57:34;16.40;99.90
13817;DHT22;6979;52.116;5.286;2023-06-01T05:00:02;16.40;99.90
13817;DHT22;6979;52.116;5.286;2023-06-01T05:02:31;16.40;99.90
13817;DHT22;6979;52.116;5.286;2023-06-01T05:04:58;16.40;99.90
13817;DHT22;6979;52.116;5.286;2023-06-01T05:07:26;16.50;99.90
13817;DHT22;6979;52.116;5.286;2023-06-01T05:09:53;16.50;99.90
13817;DHT22;6979;52.116;5.286;2023-06-01T05:12:20;16.50;99.90
13817;DHT22;6979;52.116;5.286;2023-06-01T05:14:47;16.60;99.90
13817;DHT22;6979;52.116;5.286;2023-06-01T05:17:16;16.60;99.90
13817;DHT22;6979;52.116;5.286;2023-06-01T05:19:42;16.60;99.90
13817;DHT22;6979;52.116;5.286;2023-06-01T05:22:10;16.60;99.90
13817;DHT22;6979;52.116;5.286;2023-06-01T05:24:38;16.70;99.90
13817;DHT22;6979;52.116;5.286;2023-06-01T05:27:06;16.70;99.90
13817;DHT22;6979;52.116;5.286;2023-06-01T05:29:33;16.70;99.90
13817;DHT22;6979;52.116;5.286;2023-06-01T05:32:00;16.80;99.90
13817;DHT22;6979;52.116;5.286;2023-06-01T05:34:27;16.80;99.90
13817;DHT22;6979;52.116;5.286;2023-06-01T05:36:53;16.80;99.90
13817;DHT22;6979;52.116;5.286;2023-06-01T05:39:20;16.80;99.90
13817;DHT22;6979;52.116;5.286;2023-06-01T05:41:55;16.80;99.90
13817;DHT22;6979;52.116;5.286;2023-06-01T05:44:23;16.90;99.90
13817;DHT22;6979;52.116;5.286;2023-06-01T05:46:50;16.90;99.90
13817;DHT22;6979;52.116;5.286;2023-06-01T05:49:19;16.90;99.90
13817;DHT22;6979;52.116;5.286;2023-06-01T05:51:46;17.00;99.90
13817;DHT22;6979;52.116;5.286;2023-06-01T05:54:13;17.00;99.90
13817;DHT22;6979;52.116;5.286;2023-06-01T05:56:40;17.00;99.90
13817;DHT22;6979;52.116;5.286;2023-06-01T05:59:10;17.10;99.90
13817;DHT22;6979;52.116;5.286;2023-06-01T06:01:37;17.10;99.90
13817;DHT22;6979;52.116;5.286;2023-06-01T06:04:04;17.20;99.90
13817;DHT22;6979;52.116;5.286;2023-06-01T06:06:31;17.20;99.90
13817;DHT22;6979;52.116;5.286;2023-06-01T06:08:58;17.30;99.90
13817;DHT22;6979;52.116;5.286;2023-06-01T06:11:26;17.30;99.90
13817;DHT22;6979;52.116;5.286;2023-06-01T06:13:53;17.40;99.90
13817;DHT22;6979;52.116;5.286;2023-06-01T06:16:21;17.40;99.90
13817;DHT22;6979;52.116;5.286;2023-06-01T06:18:48;17.40;99.90
13817;DHT22;6979;52.116;5.286;2023-06-01T06:21:15;17.50;99.90
13817;DHT22;6979;52.116;5.286;2023-06-01T06:23:44;17.50;99.90
13817;DHT22;6979;52.116;5.286;2023-06-01T06:26:11;17.50;99.90
13817;DHT22;6979;52.116;5.286;2023-06-01T06:28:38;17.60;99.90
13817;DHT22;6979;52.116;5.286;2023-06-01T06:31:05;17.60;99.90
13817;DHT22;6979;52.116;5.286;2023-06-01T06:33:35;17.70;99.90
13817;DHT22;6979;52.116;5.286;2023-06-01T06:36:02;17.80;99.90
13817;DHT22;6979;52.116;5.286;2023-06-01T06:38:29;17.80;99.90
13817;DHT22;6979;52.116;5.286;2023-06-01T06:40:56;17.80;99.90
13817;DHT22;6979;52.116;5.286;2023-06-01T06:43:23;17.90;99.90
13817;DHT22;6979;52.116;5.286;2023-06-01T06:45:50;18.00;99.90
13817;DHT22;6979;52.116;5.286;2023-06-01T06:48:17;18.00;99.90
13817;DHT22;6979;52.116;5.286;2023-06-01T06:50:45;18.10;99.90
13817;DHT22;6979;52.116;5.286;2023-06-01T06:53:12;18.20;99.90
13817;DHT22;6979;52.116;5.286;2023-06-01T06:55:38;18.20;99.90
13817;DHT22;6979;52.116;5.286;2023-06-01T06:58:08;18.30;99.90
13817;DHT22;6979;52.116;5.286;2023-06-01T07:00:36;18.30;99.90
13817;DHT22;6979;52.116;5.286;2023-06-01T07:03:03;18.40;99.90
13817;DHT22;6979;52.116;5.286;2023-06-01T07:05:31;18.50;99.90
13817;DHT22;6979;52.116;5.286;2023-06-01T07:07:59;18.50;99.90
13817;DHT22;6979;52.116;5.286;2023-06-01T07:10:26;18.60;99.80
13817;DHT22;6979;52.116;5.286;2023-06-01T07:12:53;18.70;99.60
13817;DHT22;6979;52.116;5.286;2023-06-01T07:15:20;18.70;99.50
13817;DHT22;6979;52.116;5.286;2023-06-01T07:17:47;18.70;99.50
13817;DHT22;6979;52.116;5.286;2023-06-01T07:20:15;18.80;99.40
13817;DHT22;6979;52.116;5.286;2023-06-01T07:22:42;18.80;99.40
13817;DHT22;6979;52.116;5.286;2023-06-01T07:25:10;18.90;99.70
13817;DHT22;6979;52.116;5.286;2023-06-01T07:27:38;19.00;99.40
13817;DHT22;6979;52.116;5.286;2023-06-01T07:30:09;19.00;99.20
13817;DHT22;6979;52.116;5.286;2023-06-01T07:32:37;19.10;99.20
13817;DHT22;6979;52.116;5.286;2023-06-01T07:35:05;19.20;99.10
13817;DHT22;6979;52.116;5.286;2023-06-01T07:37:33;19.20;98.90
13817;DHT22;6979;52.116;5.286;2023-06-01T07:40:00;19.30;98.90
13817;DHT22;6979;52.116;5.286;2023-06-01T07:42:28;19.40;98.70
13817;DHT22;6979;52.116;5.286;2023-06-01T07:44:55;19.50;98.60
13817;DHT22;6979;52.116;5.286;2023-06-01T07:47:22;19.60;98.30
13817;DHT22;6979;52.116;5.286;2023-06-01T07:49:50;19.70;98.30
13817;DHT22;6979;52.116;5.286;2023-06-01T07:52:17;19.70;98.20
13817;DHT22;6979;52.116;5.286;2023-06-01T07:54:44;19.80;98.20
13817;DHT22;6979;52.116;5.286;2023-06-01T07:57:11;19.90;97.90
13817;DHT22;6979;52.116;5.286;2023-06-01T07:59:39;20.00;97.60
13817;DHT22;6979;52.116;5.286;2023-06-01T08:02:09;20.00;97.50
13817;DHT22;6979;52.116;5.286;2023-06-01T08:04:37;20.10;97.50
13817;DHT22;6979;52.116;5.286;2023-06-01T08:07:04;20.10;97.60
13817;DHT22;6979;52.116;5.286;2023-06-01T08:09:33;20.20;97.60
13817;DHT22;6979;52.116;5.286;2023-06-01T08:12:00;20.30;97.50
13817;DHT22;6979;52.116;5.286;2023-06-01T08:14:27;20.40;97.20
13817;DHT22;6979;52.116;5.286;2023-06-01T08:16:59;20.50;96.90
13817;DHT22;6979;52.116;5.286;2023-06-01T08:19:26;20.60;96.60
13817;DHT22;6979;52.116;5.286;2023-06-01T08:25:12;20.70;96.10
13817;DHT22;6979;52.116;5.286;2023-06-01T08:27:40;20.90;95.90
13817;DHT22;6979;52.116;5.286;2023-06-01T08:30:07;20.90;95.80
13817;DHT22;6979;52.116;5.286;2023-06-01T08:32:36;20.90;95.70
13817;DHT22;6979;52.116;5.286;2023-06-01T08:35:03;21.00;95.60
13817;DHT22;6979;52.116;5.286;2023-06-01T08:37:30;21.00;95.40
13817;DHT22;6979;52.116;5.286;2023-06-01T08:39:57;21.10;95.50
13817;DHT22;6979;52.116;5.286;2023-06-01T08:42:29;21.10;95.50
13817;DHT22;6979;52.116;5.286;2023-06-01T08:45:04;21.10;95.50
13817;DHT22;6979;52.116;5.286;2023-06-01T08:47:32;21.20;95.30
13817;DHT22;6979;52.116;5.286;2023-06-01T08:50:10;21.30;95.30
13817;DHT22;6979;52.116;5.286;2023-06-01T08:52:38;21.40;95.00
13817;DHT22;6979;52.116;5.286;2023-06-01T08:55:08;21.50;95.00
13817;DHT22;6979;52.116;5.286;2023-06-01T08:57:35;21.70;95.00
13817;DHT22;6979;52.116;5.286;2023-06-01T09:00:02;21.90;94.90
13817;DHT22;6979;52.116;5.286;2023-06-01T09:02:30;22.10;94.80
13817;DHT22;6979;52.116;5.286;2023-06-01T09:04:56;22.30;94.30
13817;DHT22;6979;52.116;5.286;2023-06-01T09:07:26;22.50;93.80
13817;DHT22;6979;52.116;5.286;2023-06-01T09:09:55;22.70;93.30
13817;DHT22;6979;52.116;5.286;2023-06-01T09:12:24;22.80;93.00
13817;DHT22;6979;52.116;5.286;2023-06-01T09:15:07;22.80;93.00
13817;DHT22;6979;52.116;5.286;2023-06-01T09:17:34;23.00;93.10
13817;DHT22;6979;52.116;5.286;2023-06-01T09:20:02;23.10;93.00
13817;DHT22;6979;52.116;5.286;2023-06-01T09:22:40;23.20;93.00
13817;DHT22;6979;52.116;5.286;2023-06-01T09:25:07;23.40;92.40
13817;DHT22;6979;52.116;5.286;2023-06-01T09:27:43;23.60;92.50
13817;DHT22;6979;52.116;5.286;2023-06-01T09:30:11;23.70;92.30
13817;DHT22;6979;52.116;5.286;2023-06-01T09:32:39;23.80;92.40
13817;DHT22;6979;52.116;5.286;2023-06-01T09:35:07;24.00;92.10
13817;DHT22;6979;52.116;5.286;2023-06-01T09:37:34;24.20;91.60
13817;DHT22;6979;52.116;5.286;2023-06-01T09:40:16;24.30;91.30
13817;DHT22;6979;52.116;5.286;2023-06-01T09:42:43;24.60;90.90
13817;DHT22;6979;52.116;5.286;2023-06-01T09:45:16;24.80;90.80
13817;DHT22;6979;52.116;5.286;2023-06-01T09:47:43;25.10;90.20
13817;DHT22;6979;52.116;5.286;2023-06-01T09:50:10;25.30;89.70
13817;DHT22;6979;52.116;5.286;2023-06-01T09:52:37;25.40;89.20
13817;DHT22;6979;52.116;5.286;2023-06-01T09:55:09;25.60;89.90
13817;DHT22;6979;52.116;5.286;2023-06-01T09:57:36;25.80;89.60
13817;DHT22;6979;52.116;5.286;2023-06-01T10:00:05;26.20;89.70
13817;DHT22;6979;52.116;5.286;2023-06-01T10:02:34;26.60;88.50
13817;DHT22;6979;52.116;5.286;2023-06-01T10:05:02;27.00;87.10
13817;DHT22;6979;52.116;5.286;2023-06-01T10:07:30;27.30;86.90
13817;DHT22;6979;52.116;5.286;2023-06-01T10:10:00;27.60;86.40
13817;DHT22;6979;52.116;5.286;2023-06-01T10:12:29;27.90;85.90
13817;DHT22;6979;52.116;5.286;2023-06-01T10:14:58;28.30;85.10
13817;DHT22;6979;52.116;5.286;2023-06-01T10:17:25;28.50;84.20
13817;DHT22;6979;52.116;5.286;2023-06-01T10:19:53;28.70;83.70
13817;DHT22;6979;52.116;5.286;2023-06-01T10:22:22;28.90;82.60
13817;DHT22;6979;52.116;5.286;2023-06-01T10:24:49;29.00;82.00
13817;DHT22;6979;52.116;5.286;2023-06-01T10:27:26;29.10;81.80
13817;DHT22;6979;52.116;5.286;2023-06-01T10:29:55;29.30;80.70
13817;DHT22;6979;52.116;5.286;2023-06-01T10:32:41;29.50;80.90
13817;DHT22;6979;52.116;5.286;2023-06-01T10:38:23;29.70;79.40
13817;DHT22;6979;52.116;5.286;2023-06-01T10:40:50;29.90;79.50
13817;DHT22;6979;52.116;5.286;2023-06-01T10:43:39;30.00;79.20
13817;DHT22;6979;52.116;5.286;2023-06-01T10:46:39;30.10;78.50
13817;DHT22;6979;52.116;5.286;2023-06-01T10:49:07;30.30;77.80
13817;DHT22;6979;52.116;5.286;2023-06-01T10:51:39;30.40;77.60
13817;DHT22;6979;52.116;5.286;2023-06-01T10:54:31;30.40;77.10
13817;DHT22;6979;52.116;5.286;2023-06-01T10:57:21;30.40;76.70
13817;DHT22;6979;52.116;5.286;2023-06-01T11:00:11;30.40;76.60
13817;DHT22;6979;52.116;5.286;2023-06-01T11:02:55;30.40;76.10
13817;DHT22;6979;52.116;5.286;2023-06-01T11:05:50;30.30;75.70
13817;DHT22;6979;52.116;5.286;2023-06-01T11:08:50;30.20;76.50
13817;DHT22;6979;52.116;5.286;2023-06-01T11:11:18;30.20;76.20
13817;DHT22;6979;52.116;5.286;2023-06-01T11:14:07;30.20;76.00
13817;DHT22;6979;52.116;5.286;2023-06-01T11:16:35;30.20;76.00
13817;DHT22;6979;52.116;5.286;2023-06-01T11:19:06;30.30;76.10
13817;DHT22;6979;52.116;5.286;2023-06-01T11:21:39;30.30;75.40
13817;DHT22;6979;52.116;5.286;2023-06-01T11:24:10;30.30;75.40
13817;DHT22;6979;52.116;5.286;2023-06-01T11:26:39;30.40;75.30
13817;DHT22;6979;52.116;5.286;2023-06-01T11:29:12;30.30;75.10
13817;DHT22;6979;52.116;5.286;2023-06-01T11:31:42;30.30;75.00
13817;DHT22;6979;52.116;5.286;2023-06-01T11:34:11;30.30;76.10
13817;DHT22;6979;52.116;5.286;2023-06-01T11:36:41;30.20;75.30
13817;DHT22;6979;52.116;5.286;2023-06-01T11:39:20;30.10;75.00
13817;DHT22;6979;52.116;5.286;2023-06-01T11:42:07;30.10;74.80
13817;DHT22;6979;52.116;5.286;2023-06-01T11:44:38;30.00;75.10
13817;DHT22;6979;52.116;5.286;2023-06-01T11:47:07;29.80;75.50
13817;DHT22;6979;52.116;5.286;2023-06-01T11:49:54;29.80;76.30
13817;DHT22;6979;52.116;5.286;2023-06-01T11:52:31;29.70;76.00
13817;DHT22;6979;52.116;5.286;2023-06-01T11:55:02;29.70;76.00
13817;DHT22;6979;52.116;5.286;2023-06-01T11:57:30;29.60;75.80
13817;DHT22;6979;52.116;5.286;2023-06-01T11:59:57;29.60;76.30
13817;DHT22;6979;52.116;5.286;2023-06-01T12:02:26;29.50;76.20
13817;DHT22;6979;52.116;5.286;2023-06-01T12:04:58;29.40;75.80
13817;DHT22;6979;52.116;5.286;2023-06-01T12:07:32;29.30;75.80
13817;DHT22;6979;52.116;5.286;2023-06-01T12:09:59;29.10;76.00
13817;DHT22;6979;52.116;5.286;2023-06-01T12:12:27;29.00;76.10
13817;DHT22;6979;52.116;5.286;2023-06-01T12:14:55;28.80;76.30
13817;DHT22;6979;52.116;5.286;2023-06-01T12:17:23;28.50;76.40
13817;DHT22;6979;52.116;5.286;2023-06-01T12:19:50;28.20;76.50
13817;DHT22;6979;52.116;5.286;2023-06-01T12:22:19;28.00;76.80
13817;DHT22;6979;52.116;5.286;2023-06-01T12:24:46;27.70;77.30
13817;DHT22;6979;52.116;5.286;2023-06-01T12:27:15;27.40;77.80
13817;DHT22;6979;52.116;5.286;2023-06-01T12:29:43;27.10;78.20
13817;DHT22;6979;52.116;5.286;2023-06-01T12:32:11;26.80;78.50
13817;DHT22;6979;52.116;5.286;2023-06-01T12:34:41;26.50;78.80
13817;DHT22;6979;52.116;5.286;2023-06-01T12:37:14;26.20;79.40
13817;DHT22;6979;52.116;5.286;2023-06-01T12:39:43;25.90;79.90
13817;DHT22;6979;52.116;5.286;2023-06-01T12:42:10;25.60;80.40
13817;DHT22;6979;52.116;5.286;2023-06-01T12:44:38;25.40;80.90
13817;DHT22;6979;52.116;5.286;2023-06-01T12:47:07;25.20;81.30
13817;DHT22;6979;52.116;5.286;2023-06-01T12:49:34;25.00;81.90
13817;DHT22;6979;52.116;5.286;2023-06-01T12:52:04;24.80;82.50
13817;DHT22;6979;52.116;5.286;2023-06-01T12:54:31;24.60;83.00
13817;DHT22;6979;52.116;5.286;2023-06-01T12:56:59;24.50;83.50
13817;DHT22;6979;52.116;5.286;2023-06-01T12:59:27;24.40;83.90
13817;DHT22;6979;52.116;5.286;2023-06-01T13:01:54;24.20;84.60
13817;DHT22;6979;52.116;5.286;2023-06-01T13:04:21;24.10;84.60
13817;DHT22;6979;52.116;5.286;2023-06-01T13:06:50;23.90;84.80
13817;DHT22;6979;52.116;5.286;2023-06-01T13:09:20;23.80;85.30
13817;DHT22;6979;52.116;5.286;2023-06-01T13:11:49;23.70;85.90
13817;DHT22;6979;52.116;5.286;2023-06-01T13:14:18;23.50;86.20
13817;DHT22;6979;52.116;5.286;2023-06-01T13:16:48;23.40;86.40
13817;DHT22;6979;52.116;5.286;2023-06-01T13:19:16;23.30;86.80
13817;DHT22;6979;52.116;5.286;2023-06-01T13:21:47;23.20;87.10
13817;DHT22;6979;52.116;5.286;2023-06-01T13:24:19;23.20;87.60
13817;DHT22;6979;52.116;5.286;2023-06-01T13:26:46;23.10;87.80
13817;DHT22;6979;52.116;5.286;2023-06-01T13:29:14;23.00;88.00
13817;DHT22;6979;52.116;5.286;2023-06-01T13:31:51;22.90;88.20
13817;DHT22;6979;52.116;5.286;2023-06-01T13:34:18;22.80;88.40
13817;DHT22;6979;52.116;5.286;2023-06-01T13:36:47;22.70;88.70
13817;DHT22;6979;52.116;5.286;2023-06-01T13:39:14;22.60;88.90
13817;DHT22;6979;52.116;5.286;2023-06-01T13:41:41;22.50;89.10
13817;DHT22;6979;52.116;5.286;2023-06-01T13:44:08;22.40;89.40
13817;DHT22;6979;52.116;5.286;2023-06-01T13:46:35;22.30;89.60
13817;DHT22;6979;52.116;5.286;2023-06-01T13:49:04;22.30;90.00
13817;DHT22;6979;52.116;5.286;2023-06-01T13:51:31;22.20;90.10
13817;DHT22;6979;52.116;5.286;2023-06-01T13:53:59;22.10;90.10
13817;DHT22;6979;52.116;5.286;2023-06-01T13:56:26;22.10;90.20
13817;DHT22;6979;52.116;5.286;2023-06-01T13:58:52;22.00;90.30
13817;DHT22;6979;52.116;5.286;2023-06-01T14:01:20;22.00;90.40
13817;DHT22;6979;52.116;5.286;2023-06-01T14:03:50;21.90;90.50
13817;DHT22;6979;52.116;5.286;2023-06-01T14:06:19;21.90;90.60
13817;DHT22;6979;52.116;5.286;2023-06-01T14:08:47;21.90;90.70
13817;DHT22;6979;52.116;5.286;2023-06-01T14:11:14;21.90;90.80
13817;DHT22;6979;52.116;5.286;2023-06-01T14:13:41;21.90;90.70
13817;DHT22;6979;52.116;5.286;2023-06-01T14:16:08;21.90;90.70
13817;DHT22;6979;52.116;5.286;2023-06-01T14:18:34;21.90;90.80
13817;DHT22;6979;52.116;5.286;2023-06-01T14:21:01;21.90;90.80
13817;DHT22;6979;52.116;5.286;2023-06-01T14:23:30;21.90;90.90
13817;DHT22;6979;52.116;5.286;2023-06-01T14:25:57;21.80;90.90
13817;DHT22;6979;52.116;5.286;2023-06-01T14:28:23;21.80;91.00
13817;DHT22;6979;52.116;5.286;2023-06-01T14:30:50;21.80;91.10
13817;DHT22;6979;52.116;5.286;2023-06-01T14:33:17;21.80;91.20
13817;DHT22;6979;52.116;5.286;2023-06-01T14:35:44;21.80;91.70
13817;DHT22;6979;52.116;5.286;2023-06-01T14:38:11;21.80;91.40
13817;DHT22;6979;52.116;5.286;2023-06-01T14:40:39;21.80;91.40
13817;DHT22;6979;52.116;5.286;2023-06-01T14:43:06;21.80;91.50
13817;DHT22;6979;52.116;5.286;2023-06-01T14:45:33;21.80;91.60
13817;DHT22;6979;52.116;5.286;2023-06-01T14:48:00;21.80;91.60
13817;DHT22;6979;52.116;5.286;2023-06-01T14:50:27;21.70;91.60
13817;DHT22;6979;52.116;5.286;2023-06-01T14:52:54;21.70;91.60
13817;DHT22;6979;52.116;5.286;2023-06-01T14:55:24;21.70;91.60
13817;DHT22;6979;52.116;5.286;2023-06-01T14:57:52;21.70;92.00
13817;DHT22;6979;52.116;5.286;2023-06-01T15:00:20;21.70;91.70
13817;DHT22;6979;52.116;5.286;2023-06-01T15:02:47;21.60;91.80
13817;DHT22;6979;52.116;5.286;2023-06-01T15:05:14;21.60;91.80
13817;DHT22;6979;52.116;5.286;2023-06-01T15:07:40;21.70;91.80
13817;DHT22;6979;52.116;5.286;2023-06-01T15:10:08;21.60;91.60
13817;DHT22;6979;52.116;5.286;2023-06-01T15:12:36;21.60;91.60
13817;DHT22;6979;52.116;5.286;2023-06-01T15:15:05;21.60;91.50
13817;DHT22;6979;52.116;5.286;2023-06-01T15:17:34;21.60;91.50
13817;DHT22;6979;52.116;5.286;2023-06-01T15:20:02;21.60;91.40
13817;DHT22;6979;52.116;5.286;2023-06-01T15:22:28;21.50;91.30
13817;DHT22;6979;52.116;5.286;2023-06-01T15:24:56;21.50;91.30
13817;DHT22;6979;52.116;5.286;2023-06-01T15:27:22;21.40;91.30
13817;DHT22;6979;52.116;5.286;2023-06-01T15:29:49;21.40;91.40
13817;DHT22;6979;52.116;5.286;2023-06-01T15:32:17;21.40;91.50
13817;DHT22;6979;52.116;5.286;2023-06-01T15:34:44;21.40;91.60
13817;DHT22;6979;52.116;5.286;2023-06-01T15:37:12;21.40;91.60
13817;DHT22;6979;52.116;5.286;2023-06-01T15:39:39;21.40;91.60
13817;DHT22;6979;52.116;5.286;2023-06-01T15:42:08;21.40;91.50
13817;DHT22;6979;52.116;5.286;2023-06-01T15:44:38;21.40;91.60
13817;DHT22;6979;52.116;5.286;2023-06-01T15:47:05;21.30;91.60
13817;DHT22;6979;52.116;5.286;2023-06-01T15:49:34;21.30;91.60
13817;DHT22;6979;52.116;5.286;2023-06-01T15:52:01;21.30;91.70
13817;DHT22;6979;52.116;5.286;2023-06-01T15:54:30;21.20;91.70
13817;DHT22;6979;52.116;5.286;2023-06-01T15:56:57;21.20;91.80
13817;DHT22;6979;52.116;5.286;2023-06-01T15:59:24;21.20;91.80
13817;DHT22;6979;52.116;5.286;2023-06-01T16:01:51;21.10;91.90
13817;DHT22;6979;52.116;5.286;2023-06-01T16:04:18;21.10;91.90